Time;durP1;ratioP1;P1;durP2;ratioP2;P2;SDS_P1;SDS_P2;PMS_P1;PMS_P2;Temp;Humidity;BMP_temperature;BMP_pressure;BME280_temperature;BME280_humidity;BME280_pressure;Samples;Min_cycle;Max_cycle;Signal;HPM_P1;HPM_P2
2022/07/21 00:01:14;;;;;;;10.60;4.70;;;21.50;98.50;;;;;;5033033;28;20102;-61
2022/07/21 00:03:39;;;;;;;13.25;5.35;;;21.40;98.60;;;;;;5032880;28;20041;-60
2022/07/21 00:06:06;;;;;;;8.70;4.55;;;21.40;98.70;;;;;;5039136;28;20045;-60
2022/07/21 00:08:32;;;;;;;14.55;4.90;;;21.40;98.80;;;;;;5033899;28;20746;-61
2022/07/21 00:10:58;;;;;;;14.32;5.15;;;21.40;98.80;;;;;;5029033;28;20112;-61
2022/07/21 00:13:23;;;;;;;11.93;5.38;;;21.40;99.00;;;;;;5034752;28;20040;-61
2022/07/21 00:15:49;;;;;;;14.00;5.18;;;21.40;99.10;;;;;;5024893;28;20087;-60
2022/07/21 00:18:17;;;;;;;9.52;4.97;;;21.40;99.20;;;;;;5032641;28;20091;-61
2022/07/21 00:20:43;;;;;;;13.02;5.50;;;21.30;99.20;;;;;;5034525;28;20060;-60
2022/07/21 00:23:09;;;;;;;11.93;5.13;;;21.30;99.40;;;;;;5023990;28;20491;-61
2022/07/21 00:25:34;;;;;;;9.75;5.22;;;21.30;99.60;;;;;;5035322;28;20045;-57
2022/07/21 00:28:02;;;;;;;13.95;5.53;;;21.20;99.60;;;;;;5034060;28;20056;-58
2022/07/21 00:30:29;;;;;;;11.52;5.80;;;21.20;99.60;;;;;;5017577;28;20136;-60
2022/07/21 00:32:54;;;;;;;10.50;5.70;;;21.20;99.70;;;;;;5033366;28;20491;-59
2022/07/21 00:35:20;;;;;;;11.30;5.95;;;21.20;99.80;;;;;;5030179;28;20041;-60
2022/07/21 00:37:46;;;;;;;15.45;6.15;;;21.20;99.90;;;;;;5015945;28;20089;-59
2022/07/21 00:40:13;;;;;;;11.40;6.22;;;21.20;99.80;;;;;;5031760;28;20045;-59
2022/07/21 00:42:39;;;;;;;9.82;5.85;;;21.20;99.90;;;;;;5032646;28;20049;-59
2022/07/21 00:45:06;;;;;;;11.75;6.00;;;21.20;99.90;;;;;;5033457;28;20045;-59
2022/07/21 00:47:33;;;;;;;12.35;6.00;;;21.20;99.90;;;;;;5035478;28;20520;-59
2022/07/21 00:50:01;;;;;;;10.80;5.85;;;21.20;99.90;;;;;;5032320;28;20040;-59
2022/07/21 00:52:27;;;;;;;11.63;6.63;;;21.20;99.90;;;;;;5037322;28;20042;-60
2022/07/21 00:54:53;;;;;;;14.60;6.13;;;21.20;99.90;;;;;;5031669;28;20048;-60
2022/07/21 00:57:19;;;;;;;12.40;6.57;;;21.10;99.90;;;;;;5030932;28;20610;-60
2022/07/21 00:59:45;;;;;;;13.77;6.65;;;21.20;99.90;;;;;;5032563;28;20050;-60
2022/07/21 01:02:13;;;;;;;17.98;7.20;;;21.10;99.90;;;;;;5004171;28;20175;-61
2022/07/21 01:04:39;;;;;;;10.45;6.60;;;21.10;99.90;;;;;;5010537;28;20053;-59
2022/07/21 01:07:06;;;;;;;15.52;7.20;;;21.10;99.90;;;;;;5030072;28;20049;-60
2022/07/21 01:09:33;;;;;;;13.10;7.35;;;21.10;99.90;;;;;;5021794;28;20045;-60
2022/07/21 01:12:00;;;;;;;15.80;7.60;;;21.00;99.90;;;;;;5028845;28;20052;-60
2022/07/21 01:14:26;;;;;;;15.88;7.90;;;21.00;99.90;;;;;;5026202;28;20052;-60
2022/07/21 01:16:53;;;;;;;14.35;7.57;;;21.00;99.90;;;;;;5024860;28;20429;-60
2022/07/21 01:19:19;;;;;;;14.43;8.32;;;20.90;99.90;;;;;;5024984;28;20049;-60
2022/07/21 01:21:48;;;;;;;15.35;8.07;;;20.90;99.90;;;;;;5008538;28;20053;-61
2022/07/21 01:24:14;;;;;;;13.88;7.40;;;20.90;99.90;;;;;;5022168;28;20049;-61
2022/07/21 01:26:41;;;;;;;15.70;7.18;;;20.80;99.90;;;;;;5028824;28;20099;-60
2022/07/21 01:29:08;;;;;;;14.32;7.40;;;20.80;99.90;;;;;;5027095;28;20096;-60
2022/07/21 01:31:35;;;;;;;13.68;8.23;;;20.70;99.90;;;;;;5027794;28;20559;-61
2022/07/21 01:34:00;;;;;;;12.90;7.53;;;20.70;99.90;;;;;;5009151;28;20041;-61
2022/07/21 01:36:26;;;;;;;12.40;7.45;;;20.70;99.90;;;;;;5024616;28;20561;-60
2022/07/21 01:41:36;;;;;;;15.45;7.90;;;20.60;99.90;;;;;;5014221;28;20064;-60
2022/07/21 01:44:10;;;;;;;13.20;7.25;;;20.70;99.90;;;;;;5027619;28;20142;-60
2022/07/21 01:46:39;;;;;;;14.65;7.80;;;20.70;99.90;;;;;;5029274;28;20049;-60
2022/07/21 01:49:06;;;;;;;13.35;7.28;;;20.60;99.90;;;;;;5030101;28;20042;-60
2022/07/21 01:51:32;;;;;;;14.13;8.20;;;20.60;99.90;;;;;;5023959;28;20487;-60
2022/07/21 01:53:59;;;;;;;17.70;8.27;;;20.60;99.90;;;;;;5025402;28;20067;-59
2022/07/21 01:56:26;;;;;;;13.77;7.95;;;20.60;99.90;;;;;;5026507;28;20056;-59
2022/07/21 01:58:54;;;;;;;12.32;7.75;;;20.60;99.90;;;;;;5029405;28;21912;-60
2022/07/21 02:01:21;;;;;;;22.33;8.23;;;20.60;99.90;;;;;;5027344;28;20049;-60
2022/07/21 02:03:48;;;;;;;13.90;7.57;;;20.50;99.90;;;;;;5029636;28;20065;-61
2022/07/21 02:06:15;;;;;;;16.70;8.30;;;20.50;99.90;;;;;;5006883;28;20414;-60
2022/07/21 02:08:44;;;;;;;13.23;8.52;;;20.50;99.90;;;;;;5020701;28;20075;-61
2022/07/21 02:11:10;;;;;;;15.75;8.43;;;20.50;99.90;;;;;;5026437;28;20112;-60
2022/07/21 02:13:36;;;;;;;16.27;8.98;;;20.50;99.90;;;;;;5019696;28;20065;-61
2022/07/21 02:16:02;;;;;;;15.82;8.65;;;20.40;99.90;;;;;;5009945;28;20053;-60
2022/07/21 02:18:28;;;;;;;11.00;7.40;;;20.40;99.90;;;;;;5014343;28;20060;-61
2022/07/21 02:20:54;;;;;;;14.88;8.05;;;20.40;99.90;;;;;;5032183;28;20046;-59
2022/07/21 02:23:21;;;;;;;17.63;8.60;;;20.40;99.90;;;;;;5012558;28;20049;-60
2022/07/21 02:25:47;;;;;;;15.70;8.73;;;20.40;99.90;;;;;;5033698;28;20075;-60
2022/07/21 02:28:13;;;;;;;15.75;9.05;;;20.40;99.90;;;;;;5032989;28;20049;-59
2022/07/21 02:30:39;;;;;;;16.98;9.57;;;20.40;99.90;;;;;;5011373;28;20041;-59
2022/07/21 02:33:06;;;;;;;18.05;8.93;;;20.40;99.90;;;;;;5032479;28;20055;-59
2022/07/21 02:35:32;;;;;;;14.20;9.05;;;20.40;99.90;;;;;;5012930;28;20051;-58
2022/07/21 02:37:58;;;;;;;15.32;10.10;;;20.30;99.90;;;;;;5035028;28;20049;-59
2022/07/21 02:40:25;;;;;;;19.45;10.43;;;20.30;99.90;;;;;;5014407;28;20099;-59
2022/07/21 02:42:51;;;;;;;18.67;10.75;;;20.30;99.90;;;;;;5030641;28;20036;-59
2022/07/21 02:45:16;;;;;;;13.90;10.00;;;20.30;99.90;;;;;;5033817;28;20099;-59
2022/07/21 02:47:57;;;;;;;17.42;10.23;;;20.20;99.90;;;;;;5032270;28;20053;-59
2022/07/21 02:50:25;;;;;;;17.40;10.80;;;20.20;99.90;;;;;;5010075;28;20052;-59
2022/07/21 02:52:55;;;;;;;13.90;10.07;;;20.20;99.90;;;;;;5031618;28;20163;-59
2022/07/21 02:55:21;;;;;;;23.38;11.95;;;20.10;99.90;;;;;;5031946;28;20476;-59
2022/07/21 02:57:47;;;;;;;17.25;10.30;;;20.10;99.90;;;;;;5009822;28;20048;-59
2022/07/21 03:00:14;;;;;;;17.67;10.75;;;20.10;99.90;;;;;;5030080;28;20041;-58
2022/07/21 03:02:40;;;;;;;18.48;12.38;;;20.10;99.90;;;;;;5012476;28;20049;-59
2022/07/21 03:05:06;;;;;;;16.75;11.45;;;20.10;99.90;;;;;;5030405;28;20522;-59
2022/07/21 03:07:32;;;;;;;17.83;11.15;;;20.10;99.90;;;;;;5025465;28;20687;-59
2022/07/21 03:09:58;;;;;;;14.77;10.75;;;20.00;99.90;;;;;;4981385;28;20061;-59
2022/07/21 03:12:24;;;;;;;14.00;10.93;;;20.10;99.90;;;;;;5033492;28;20056;-59
2022/07/21 03:14:50;;;;;;;21.85;12.10;;;20.00;99.90;;;;;;5033282;28;20053;-59
2022/07/21 03:17:15;;;;;;;16.83;11.43;;;20.10;99.90;;;;;;5029439;28;20065;-58
2022/07/21 03:19:41;;;;;;;17.88;11.48;;;20.10;99.90;;;;;;5024803;28;20515;-59
2022/07/21 03:22:07;;;;;;;18.92;11.70;;;20.10;99.90;;;;;;5000639;28;20132;-59
2022/07/21 03:24:33;;;;;;;17.10;11.02;;;20.10;99.90;;;;;;5016488;28;20054;-59
2022/07/21 03:26:59;;;;;;;19.52;12.82;;;20.10;99.90;;;;;;5021599;28;20112;-61
2022/07/21 03:29:24;;;;;;;19.33;12.30;;;20.10;99.90;;;;;;4996854;28;20089;-59
2022/07/21 03:31:50;;;;;;;18.08;12.65;;;20.10;99.90;;;;;;5015615;28;20048;-61
2022/07/21 03:34:16;;;;;;;18.30;11.20;;;20.10;99.90;;;;;;5004606;28;20044;-60
2022/07/21 03:36:42;;;;;;;16.80;11.00;;;20.10;99.90;;;;;;5037680;28;21150;-59
2022/07/21 03:39:08;;;;;;;19.20;12.32;;;20.10;99.90;;;;;;5012855;28;20068;-60
2022/07/21 03:41:33;;;;;;;18.80;12.40;;;20.10;99.90;;;;;;5024504;28;20045;-60
2022/07/21 03:43:59;;;;;;;18.95;12.48;;;20.10;99.90;;;;;;5023123;28;20059;-60
2022/07/21 03:46:25;;;;;;;16.98;11.88;;;20.10;99.90;;;;;;5027692;28;20432;-59
2022/07/21 03:48:51;;;;;;;18.40;12.65;;;20.10;99.90;;;;;;5018900;28;20142;-59
2022/07/21 03:51:17;;;;;;;18.42;12.90;;;20.10;99.90;;;;;;5033431;28;20044;-59
2022/07/21 03:53:42;;;;;;;16.83;12.00;;;20.10;99.90;;;;;;5034411;28;20069;-61
2022/07/21 03:56:08;;;;;;;18.52;12.13;;;20.10;99.90;;;;;;5021064;28;20046;-59
2022/07/21 03:58:34;;;;;;;18.88;12.63;;;20.10;99.90;;;;;;5001552;28;20602;-60
2022/07/21 04:01:00;;;;;;;17.15;12.70;;;20.10;99.90;;;;;;5012121;28;20469;-60
2022/07/21 04:03:26;;;;;;;18.52;13.13;;;20.10;99.90;;;;;;5032391;28;20038;-59
2022/07/21 04:05:52;;;;;;;14.80;11.70;;;20.10;99.90;;;;;;5034583;28;20111;-60
2022/07/21 04:08:17;;;;;;;21.40;12.95;;;20.10;99.90;;;;;;4999854;28;20177;-60
2022/07/21 04:10:43;;;;;;;18.67;12.80;;;20.10;99.90;;;;;;5022659;28;20484;-60
2022/07/21 04:13:12;;;;;;;19.23;13.20;;;20.10;99.90;;;;;;5020519;28;20044;-60
2022/07/21 04:15:38;;;;;;;18.85;14.30;;;20.10;99.90;;;;;;5031085;28;20573;-60
2022/07/21 04:18:05;;;;;;;21.40;15.32;;;20.10;99.90;;;;;;5012486;28;20060;-59
2022/07/21 04:20:31;;;;;;;22.20;15.35;;;20.00;99.90;;;;;;5005896;28;20450;-59
2022/07/21 04:22:57;;;;;;;19.67;15.07;;;20.00;99.90;;;;;;5001014;28;20061;-59
2022/07/21 04:25:23;;;;;;;21.42;14.50;;;20.00;99.90;;;;;;5015223;28;20106;-60
2022/07/21 04:27:50;;;;;;;21.20;15.82;;;20.00;99.90;;;;;;5026080;28;20045;-59
2022/07/21 04:30:21;;;;;;;24.05;15.65;;;20.10;99.90;;;;;;5019483;28;20503;-60
2022/07/21 04:32:47;;;;;;;24.93;16.33;;;20.10;99.90;;;;;;5024662;28;20038;-60
2022/07/21 04:35:14;;;;;;;21.55;15.77;;;20.10;99.90;;;;;;4990152;28;20049;-59
2022/07/21 04:37:40;;;;;;;24.13;15.80;;;20.00;99.90;;;;;;5034165;28;20053;-60
2022/07/21 04:40:09;;;;;;;22.88;15.70;;;20.00;99.90;;;;;;5032303;28;20123;-59
2022/07/21 04:42:35;;;;;;;23.75;17.27;;;20.00;99.90;;;;;;5036082;28;20431;-59
2022/07/21 04:45:01;;;;;;;25.95;17.45;;;20.00;99.90;;;;;;5019062;28;20041;-59
2022/07/21 04:47:27;;;;;;;21.95;17.52;;;20.00;99.90;;;;;;5035989;28;20373;-59
2022/07/21 04:49:53;;;;;;;25.42;17.45;;;20.00;99.90;;;;;;5028093;28;20110;-60
2022/07/21 04:52:20;;;;;;;20.88;16.85;;;20.00;99.90;;;;;;5015828;28;20551;-59
2022/07/21 04:54:46;;;;;;;23.38;17.08;;;20.00;99.90;;;;;;5017028;28;20045;-60
2022/07/21 04:57:11;;;;;;;23.55;17.75;;;20.00;99.90;;;;;;5017191;28;20040;-60
2022/07/21 04:59:38;;;;;;;23.95;18.15;;;20.00;99.90;;;;;;5033108;28;20055;-59
2022/07/21 05:02:05;;;;;;;23.85;18.80;;;20.00;99.90;;;;;;5014400;28;20092;-59
2022/07/21 05:04:31;;;;;;;26.00;20.55;;;20.00;99.90;;;;;;5031599;28;20518;-60
2022/07/21 05:06:56;;;;;;;25.52;19.75;;;20.00;99.90;;;;;;5029525;28;20052;-60
2022/07/21 05:09:22;;;;;;;27.40;20.25;;;20.00;99.90;;;;;;5031527;28;20055;-59
2022/07/21 05:11:48;;;;;;;27.08;19.67;;;20.00;99.90;;;;;;5033935;28;20037;-60
2022/07/21 05:14:14;;;;;;;24.95;19.45;;;20.00;99.90;;;;;;5030170;28;20264;-60
2022/07/21 05:16:40;;;;;;;24.67;19.67;;;20.00;99.90;;;;;;5026594;28;20551;-59
2022/07/21 05:19:06;;;;;;;25.38;20.23;;;20.10;99.90;;;;;;5028651;28;20045;-59
2022/07/21 05:21:32;;;;;;;24.50;18.95;;;20.10;99.90;;;;;;5002422;28;20060;-60
2022/07/21 05:23:57;;;;;;;25.35;18.92;;;20.20;99.90;;;;;;5011119;28;20056;-60
2022/07/21 05:26:23;;;;;;;25.08;19.92;;;20.20;99.90;;;;;;4991181;28;20095;-60
2022/07/21 05:28:49;;;;;;;25.10;18.65;;;20.20;99.90;;;;;;5025000;28;20400;-59
2022/07/21 05:31:15;;;;;;;22.80;18.73;;;20.20;99.90;;;;;;5027827;28;20133;-60
2022/07/21 05:33:41;;;;;;;23.05;18.73;;;20.20;99.90;;;;;;5010196;28;20483;-60
2022/07/21 05:36:07;;;;;;;23.95;17.80;;;20.20;99.90;;;;;;5006874;28;21429;-60
2022/07/21 05:38:33;;;;;;;24.75;18.02;;;20.20;99.90;;;;;;5026681;28;20045;-60
2022/07/21 05:41:05;;;;;;;22.50;18.42;;;20.20;99.90;;;;;;5028474;28;20136;-59
2022/07/21 05:43:31;;;;;;;23.25;17.38;;;20.20;99.90;;;;;;5026953;28;20056;-59
2022/07/21 05:45:57;;;;;;;21.88;18.00;;;20.20;99.90;;;;;;5028047;28;20049;-61
2022/07/21 05:48:23;;;;;;;22.75;18.23;;;20.20;99.90;;;;;;5015045;28;20056;-59
2022/07/21 05:50:49;;;;;;;21.65;18.05;;;20.20;99.90;;;;;;5010014;28;20045;-61
2022/07/21 05:53:15;;;;;;;27.08;19.42;;;20.20;99.90;;;;;;5030338;28;20128;-60
2022/07/21 05:55:41;;;;;;;23.35;17.42;;;20.20;99.90;;;;;;5025536;28;20100;-59
2022/07/21 05:58:07;;;;;;;20.35;17.02;;;20.20;99.90;;;;;;5017422;28;20135;-59
2022/07/21 06:00:33;;;;;;;22.05;16.50;;;20.20;99.90;;;;;;5024939;28;20095;-60
2022/07/21 06:02:59;;;;;;;18.48;15.77;;;20.10;99.90;;;;;;5001486;28;20057;-60
2022/07/21 06:05:25;;;;;;;21.13;15.60;;;20.10;99.90;;;;;;5008615;28;20045;-59
2022/07/21 06:07:50;;;;;;;21.15;17.35;;;20.10;99.90;;;;;;4996995;28;20467;-60
2022/07/21 06:10:16;;;;;;;29.83;17.20;;;20.20;99.90;;;;;;5016921;28;20083;-60
2022/07/21 06:12:44;;;;;;;21.58;16.67;;;20.20;99.90;;;;;;4984634;28;20052;-59
2022/07/21 06:15:10;;;;;;;20.27;16.98;;;20.20;99.90;;;;;;5019742;28;20056;-60
2022/07/21 06:17:44;;;;;;;19.60;16.25;;;20.20;99.90;;;;;;5027802;28;20496;-60
2022/07/21 06:20:11;;;;;;;21.48;16.15;;;20.20;99.90;;;;;;5007005;28;20396;-60
2022/07/21 06:22:37;;;;;;;20.83;16.75;;;20.20;99.90;;;;;;5027361;28;20047;-59
2022/07/21 06:25:03;;;;;;;17.58;15.32;;;20.30;99.90;;;;;;5026431;28;20045;-61
2022/07/21 06:27:31;;;;;;;19.40;14.77;;;20.30;99.90;;;;;;5015827;28;20065;-60
2022/07/21 06:29:58;;;;;;;17.85;14.90;;;20.30;99.90;;;;;;5023560;28;20685;-59
2022/07/21 06:32:25;;;;;;;18.33;14.65;;;20.40;99.90;;;;;;5027370;28;20065;-60
2022/07/21 06:34:51;;;;;;;18.92;14.55;;;20.40;99.90;;;;;;5027938;28;20061;-59
2022/07/21 06:37:17;;;;;;;18.85;14.98;;;20.40;99.90;;;;;;5024803;28;20057;-59
2022/07/21 06:39:43;;;;;;;21.63;15.85;;;20.40;99.90;;;;;;5028535;28;20573;-60
2022/07/21 06:42:09;;;;;;;17.02;14.35;;;20.40;99.90;;;;;;5027763;28;20179;-59
2022/07/21 06:44:35;;;;;;;19.00;15.98;;;20.50;99.90;;;;;;5026470;28;20176;-60
2022/07/21 06:47:04;;;;;;;21.42;16.10;;;20.40;99.90;;;;;;5034530;28;20065;-59
2022/07/21 06:49:33;;;;;;;21.13;16.73;;;20.40;99.90;;;;;;5014682;28;20048;-60
2022/07/21 06:51:59;;;;;;;21.27;16.83;;;20.40;99.90;;;;;;5034212;28;20055;-60
2022/07/21 06:54:25;;;;;;;19.70;16.88;;;20.30;99.90;;;;;;5035570;28;20094;-59
2022/07/21 06:56:51;;;;;;;23.38;17.85;;;20.40;99.90;;;;;;5033535;28;20595;-60
2022/07/21 06:59:17;;;;;;;22.08;17.00;;;20.30;99.90;;;;;;5035369;28;20049;-60
2022/07/21 07:01:43;;;;;;;22.15;17.02;;;20.40;99.90;;;;;;5032021;28;20047;-60
2022/07/21 07:04:09;;;;;;;20.05;16.60;;;20.40;99.90;;;;;;5031929;28;20049;-60
2022/07/21 07:06:35;;;;;;;22.42;18.10;;;20.40;99.90;;;;;;5026965;28;20554;-60
2022/07/21 07:09:00;;;;;;;24.60;18.30;;;20.40;99.90;;;;;;5030280;28;20041;-60
2022/07/21 07:11:26;;;;;;;21.80;18.95;;;20.50;99.90;;;;;;5036183;28;20522;-60
2022/07/21 07:13:52;;;;;;;23.85;18.88;;;20.50;99.90;;;;;;5036598;28;20480;-59
2022/07/21 07:16:18;;;;;;;23.00;18.50;;;20.50;99.90;;;;;;5028341;28;20099;-61
2022/07/21 07:18:44;;;;;;;23.98;18.90;;;20.50;99.90;;;;;;5024471;28;20038;-59
2022/07/21 07:21:10;;;;;;;24.33;19.25;;;20.50;99.90;;;;;;5019608;28;20050;-60
2022/07/21 07:23:35;;;;;;;22.75;19.02;;;20.60;99.90;;;;;;5028379;28;20187;-60
2022/07/21 07:26:01;;;;;;;24.40;19.55;;;20.70;99.90;;;;;;5009845;28;20073;-60
2022/07/21 07:28:27;;;;;;;26.20;20.30;;;20.70;99.90;;;;;;5015402;28;20397;-60
2022/07/21 07:30:53;;;;;;;24.75;21.08;;;20.80;99.90;;;;;;5005094;28;20450;-60
2022/07/21 07:33:20;;;;;;;24.25;20.75;;;20.70;99.90;;;;;;5006579;28;20090;-60
2022/07/21 07:35:45;;;;;;;27.63;21.30;;;20.80;99.90;;;;;;5019943;28;20554;-61
2022/07/21 07:38:15;;;;;;;23.67;20.17;;;20.80;99.90;;;;;;5007014;28;20291;-60
2022/07/21 07:40:41;;;;;;;28.20;21.83;;;20.70;99.90;;;;;;4989989;28;20037;-60
2022/07/21 07:43:08;;;;;;;27.73;21.70;;;20.80;99.90;;;;;;5016020;28;20049;-60
2022/07/21 07:45:35;;;;;;;27.75;22.67;;;20.70;99.90;;;;;;5020433;28;20111;-60
2022/07/21 07:48:01;;;;;;;29.58;22.90;;;20.70;99.90;;;;;;5032422;28;20048;-60
2022/07/21 07:50:28;;;;;;;25.90;22.80;;;20.70;99.90;;;;;;5020067;28;20556;-60
2022/07/21 07:52:54;;;;;;;26.40;22.33;;;20.80;99.90;;;;;;5024060;28;20099;-60
2022/07/21 07:55:20;;;;;;;31.48;21.95;;;20.80;99.90;;;;;;5021718;28;20167;-61
2022/07/21 07:57:46;;;;;;;24.27;21.48;;;20.80;99.90;;;;;;5023310;28;20049;-61
2022/07/21 08:00:16;;;;;;;25.55;21.85;;;20.90;99.90;;;;;;5027427;28;20049;-60
2022/07/21 08:02:42;;;;;;;23.23;20.80;;;20.90;99.90;;;;;;5016726;28;20594;-59
2022/07/21 08:05:09;;;;;;;23.60;19.67;;;20.90;99.90;;;;;;5011117;28;20506;-59
2022/07/21 08:07:37;;;;;;;25.65;19.85;;;20.90;99.90;;;;;;5004640;28;20044;-60
2022/07/21 08:10:08;;;;;;;25.20;19.45;;;20.90;99.90;;;;;;5020775;28;20045;-60
2022/07/21 08:12:34;;;;;;;22.92;20.08;;;21.00;99.90;;;;;;5022873;28;20045;-60
2022/07/21 08:15:00;;;;;;;24.33;20.10;;;21.00;99.90;;;;;;5026436;28;20491;-60
2022/07/21 08:17:26;;;;;;;24.05;20.13;;;21.00;99.90;;;;;;5028442;28;20049;-60
2022/07/21 08:19:53;;;;;;;22.25;19.17;;;21.00;99.90;;;;;;5019437;28;20056;-59
2022/07/21 08:22:19;;;;;;;25.45;20.17;;;21.10;99.90;;;;;;5015572;28;20060;-60
2022/07/21 08:24:44;;;;;;;24.90;20.05;;;21.10;99.90;;;;;;5022990;28;20401;-61
2022/07/21 08:27:10;;;;;;;22.70;18.73;;;21.10;99.90;;;;;;5019188;28;20088;-59
2022/07/21 08:29:36;;;;;;;23.25;19.17;;;21.10;99.90;;;;;;5024549;28;20049;-60
2022/07/21 08:32:02;;;;;;;26.70;20.30;;;21.10;99.90;;;;;;5018912;28;20083;-61
2022/07/21 08:34:28;;;;;;;25.65;20.30;;;21.20;99.90;;;;;;5022252;28;20082;-59
2022/07/21 08:36:54;;;;;;;22.92;19.48;;;21.20;99.90;;;;;;5017984;28;20496;-60
2022/07/21 08:39:20;;;;;;;27.13;20.58;;;21.20;99.90;;;;;;5002384;28;20061;-60
2022/07/21 08:41:47;;;;;;;22.73;19.80;;;21.20;99.90;;;;;;5015593;28;20439;-60
2022/07/21 08:44:14;;;;;;;24.67;19.77;;;21.20;99.90;;;;;;5021512;28;20048;-60
2022/07/21 08:46:41;;;;;;;25.33;19.98;;;21.10;99.90;;;;;;5003378;28;20751;-59
2022/07/21 08:49:10;;;;;;;26.90;19.92;;;21.20;99.90;;;;;;5019548;28;20048;-60
2022/07/21 08:51:37;;;;;;;25.55;19.52;;;21.20;99.90;;;;;;5020393;28;20057;-59
2022/07/21 08:54:04;;;;;;;25.35;20.65;;;21.30;99.90;;;;;;5023351;28;20037;-61
2022/07/21 08:56:30;;;;;;;23.85;19.77;;;21.40;99.90;;;;;;5021883;28;20123;-59
2022/07/21 08:58:55;;;;;;;24.63;19.67;;;21.50;99.90;;;;;;5002660;28;20044;-60
2022/07/21 09:01:26;;;;;;;26.70;20.42;;;21.60;99.90;;;;;;5023300;28;20060;-61
2022/07/21 09:03:52;;;;;;;25.05;20.40;;;21.60;99.90;;;;;;5002288;28;20057;-60
2022/07/21 09:06:18;;;;;;;24.73;20.33;;;21.70;99.90;;;;;;5022202;28;20199;-60
2022/07/21 09:08:54;;;;;;;25.88;21.92;;;21.80;99.90;;;;;;5008736;28;20520;-60
2022/07/21 09:11:27;;;;;;;28.38;23.23;;;21.80;99.90;;;;;;5028342;28;20113;-59
2022/07/21 09:14:08;;;;;;;33.63;23.95;;;21.80;99.90;;;;;;5010496;28;20437;-61
2022/07/21 09:16:48;;;;;;;30.70;23.63;;;21.70;99.90;;;;;;5022184;28;20057;-60
2022/07/21 09:19:33;;;;;;;30.83;25.25;;;21.70;99.90;;;;;;5003211;28;20036;-60
2022/07/21 09:22:02;;;;;;;29.52;25.17;;;21.70;99.90;;;;;;5020988;28;20054;-60
2022/07/21 09:24:33;;;;;;;34.72;25.88;;;21.60;99.90;;;;;;5003455;28;20880;-60
2022/07/21 09:27:09;;;;;;;34.10;25.17;;;21.70;99.90;;;;;;5023138;28;20057;-59
2022/07/21 09:29:44;;;;;;;33.92;27.58;;;21.70;99.90;;;;;;5023271;28;20347;-61
2022/07/21 09:32:22;;;;;;;34.00;27.42;;;21.70;99.90;;;;;;5022118;28;20040;-61
2022/07/21 09:34:51;;;;;;;34.63;26.35;;;21.70;99.90;;;;;;5008438;28;20049;-60
2022/07/21 09:37:18;;;;;;;32.08;26.75;;;21.80;99.90;;;;;;5003818;28;20150;-60
2022/07/21 09:39:55;;;;;;;30.75;26.00;;;21.80;99.90;;;;;;5019876;28;20104;-61
2022/07/21 09:42:26;;;;;;;40.15;28.83;;;21.80;99.90;;;;;;5007266;28;20045;-60
2022/07/21 09:44:58;;;;;;;35.17;28.65;;;21.70;99.90;;;;;;4999009;28;20506;-59
2022/07/21 09:47:27;;;;;;;32.63;28.85;;;21.80;99.90;;;;;;5021756;28;20124;-60
2022/07/21 09:49:54;;;;;;;36.42;30.08;;;21.80;99.90;;;;;;5020166;28;20077;-59
2022/07/21 09:52:29;;;;;;;38.63;31.08;;;22.00;99.90;;;;;;5022746;28;20079;-60
2022/07/21 09:54:58;;;;;;;42.75;31.80;;;22.10;99.90;;;;;;5006240;28;20087;-59
2022/07/21 09:57:24;;;;;;;36.58;30.00;;;22.20;99.90;;;;;;5021827;28;20083;-59
2022/07/21 09:59:50;;;;;;;40.38;31.42;;;22.30;99.90;;;;;;5022126;28;20049;-61
2022/07/21 10:02:23;;;;;;;37.60;29.83;;;22.30;99.90;;;;;;5022141;28;20589;-60
2022/07/21 10:05:06;;;;;;;40.65;31.50;;;22.30;99.90;;;;;;5022948;28;20056;-60
2022/07/21 10:07:35;;;;;;;39.28;31.02;;;22.40;99.90;;;;;;5011633;28;20049;-60
2022/07/21 10:10:01;;;;;;;41.95;33.13;;;22.50;99.90;;;;;;5024398;28;20168;-60
2022/07/21 10:12:27;;;;;;;43.05;33.15;;;22.50;99.90;;;;;;5020808;28;20041;-60
2022/07/21 10:14:54;;;;;;;41.20;32.78;;;22.60;99.90;;;;;;5022020;28;20041;-60
2022/07/21 10:17:22;;;;;;;42.80;33.95;;;22.60;99.90;;;;;;5023328;28;20045;-60
2022/07/21 10:20:03;;;;;;;45.47;35.72;;;22.70;99.90;;;;;;5021481;28;20179;-61
2022/07/21 10:23:09;;;;;;;41.17;32.40;;;22.70;99.90;;;;;;5019216;28;20048;-61
2022/07/21 10:25:36;;;;;;;38.67;31.10;;;22.80;99.90;;;;;;5021459;28;20053;-60
2022/07/21 10:28:11;;;;;;;39.90;31.77;;;22.70;99.90;;;;;;5003744;28;20052;-60
2022/07/21 10:30:55;;;;;;;40.55;31.75;;;22.80;99.90;;;;;;5018227;28;20073;-61
2022/07/21 10:33:43;;;;;;;35.92;30.38;;;22.80;99.90;;;;;;5018119;28;20072;-60
2022/07/21 10:36:09;;;;;;;39.78;29.30;;;22.80;99.90;;;;;;5003369;28;20162;-61
2022/07/21 10:38:36;;;;;;;37.00;29.40;;;22.90;99.90;;;;;;5018604;28;22570;-60
2022/07/21 10:41:05;;;;;;;34.55;28.40;;;23.00;99.90;;;;;;5007417;28;20051;-61
2022/07/21 10:43:30;;;;;;;36.45;29.10;;;23.10;99.90;;;;;;5026149;28;20041;-60
2022/07/21 10:45:58;;;;;;;34.80;26.08;;;23.20;99.90;;;;;;5027739;28;20849;-60
2022/07/21 10:48:42;;;;;;;35.65;26.30;;;23.30;99.90;;;;;;5023650;28;20737;-61
2022/07/21 10:51:11;;;;;;;33.13;26.48;;;23.40;99.90;;;;;;5008280;28;20061;-61
2022/07/21 10:53:38;;;;;;;33.08;26.48;;;23.50;99.90;;;;;;5022801;28;20068;-60
2022/07/21 10:56:04;;;;;;;31.48;25.75;;;23.50;99.90;;;;;;5027934;28;20045;-60
2022/07/21 10:58:41;;;;;;;35.35;27.77;;;23.50;99.90;;;;;;5022892;28;20531;-59
2022/07/21 11:01:19;;;;;;;31.05;25.92;;;23.50;99.90;;;;;;5007771;28;20049;-60
2022/07/21 11:03:45;;;;;;;31.83;26.42;;;23.60;99.90;;;;;;5026189;28;20446;-60
2022/07/21 11:06:24;;;;;;;35.67;27.83;;;23.60;99.90;;;;;;5027156;28;20044;-60
2022/07/21 11:09:11;;;;;;;32.25;26.60;;;23.70;99.90;;;;;;5026584;28;20617;-60
2022/07/21 11:12:03;;;;;;;29.48;25.23;;;23.70;99.90;;;;;;5025467;28;20051;-61
2022/07/21 11:14:44;;;;;;;27.10;22.95;;;23.80;99.90;;;;;;5016099;28;20051;-60
2022/07/21 11:17:31;;;;;;;32.72;23.40;;;23.80;99.90;;;;;;5014079;28;20056;-60
2022/07/21 11:19:57;;;;;;;28.67;24.10;;;23.90;99.90;;;;;;5025449;28;20057;-60
2022/07/21 11:22:29;;;;;;;29.75;23.15;;;23.90;99.90;;;;;;5008935;28;20041;-60
2022/07/21 11:24:57;;;;;;;26.67;22.02;;;24.00;99.90;;;;;;5012430;28;20052;-59
2022/07/21 11:27:24;;;;;;;24.88;20.30;;;24.00;99.90;;;;;;5025462;28;20515;-60
2022/07/21 11:29:56;;;;;;;23.85;19.52;;;24.10;99.90;;;;;;5028267;28;21095;-60
2022/07/21 11:32:23;;;;;;;25.35;21.13;;;24.10;99.90;;;;;;5013015;28;20049;-60
2022/07/21 11:34:56;;;;;;;25.48;20.33;;;24.30;99.90;;;;;;5027200;28;20045;-60
2022/07/21 11:37:32;;;;;;;23.90;19.08;;;24.40;99.90;;;;;;5024644;28;20050;-59
2022/07/21 11:39:59;;;;;;;22.60;17.92;;;24.50;99.90;;;;;;5023023;28;20060;-60
2022/07/21 11:42:26;;;;;;;21.27;17.58;;;24.60;99.90;;;;;;5024945;28;20391;-60
2022/07/21 11:44:53;;;;;;;20.75;16.40;;;25.00;99.90;;;;;;5025123;28;20468;-59
2022/07/21 11:47:20;;;;;;;16.48;14.13;;;25.10;99.90;;;;;;5022772;28;21626;-60
2022/07/21 11:49:46;;;;;;;15.90;13.68;;;25.20;99.90;;;;;;5026870;28;20403;-60
2022/07/21 11:52:17;;;;;;;17.52;13.23;;;25.60;99.90;;;;;;5024553;28;20044;-60
2022/07/21 11:54:46;;;;;;;14.25;12.55;;;26.00;99.90;;;;;;5023592;28;20052;-60
2022/07/21 11:57:13;;;;;;;14.75;12.65;;;26.30;99.70;;;;;;5007544;28;20048;-60
2022/07/21 11:59:42;;;;;;;18.58;12.90;;;26.50;99.20;;;;;;5020914;28;20045;-60
2022/07/21 12:02:10;;;;;;;15.32;12.73;;;26.60;99.10;;;;;;5004861;28;20142;-60
2022/07/21 12:04:43;;;;;;;10.77;9.75;;;26.70;99.10;;;;;;5027910;28;20119;-60
2022/07/21 12:07:17;;;;;;;11.82;10.55;;;26.80;98.10;;;;;;5030538;28;20045;-60
2022/07/21 12:09:46;;;;;;;12.90;10.35;;;26.70;98.20;;;;;;5028913;28;20470;-61
2022/07/21 12:12:12;;;;;;;13.05;11.63;;;26.80;97.60;;;;;;5029031;28;20052;-61
2022/07/21 12:14:47;;;;;;;15.38;12.88;;;26.60;97.10;;;;;;5027572;28;20348;-59
2022/07/21 12:17:14;;;;;;;11.90;10.35;;;26.40;97.50;;;;;;5031256;28;20075;-60
2022/07/21 12:19:41;;;;;;;14.13;12.20;;;26.40;97.70;;;;;;5012561;28;20166;-61
2022/07/21 12:22:07;;;;;;;12.95;11.65;;;26.30;97.40;;;;;;5013579;28;20045;-60
2022/07/21 12:24:51;;;;;;;13.43;11.57;;;26.20;97.10;;;;;;5027593;28;20077;-61
2022/07/21 12:27:18;;;;;;;14.25;11.65;;;26.00;97.00;;;;;;5030324;28;20549;-61
2022/07/21 12:29:44;;;;;;;12.45;11.15;;;25.80;97.40;;;;;;5027204;28;21389;-59
2022/07/21 12:32:10;;;;;;;12.27;10.68;;;25.80;97.60;;;;;;5029154;28;20048;-60
2022/07/21 12:34:51;;;;;;;12.13;10.85;;;25.80;97.80;;;;;;5017745;28;20574;-60